createdAt,value
2023-03-13T00:00:57.805Z,12.50
2023-03-13T00:03:24.760Z,12.50
2023-03-13T00:05:56.686Z,12.50
2023-03-13T00:08:24.433Z,12.50
2023-03-13T00:10:51.111Z,12.50
2023-03-13T00:13:18.256Z,12.50
2023-03-13T00:15:44.947Z,12.50
2023-03-13T00:18:11.740Z,12.50
2023-03-13T00:20:38.456Z,12.50
2023-03-13T00:23:05.145Z,12.50
2023-03-13T00:25:31.828Z,12.50
2023-03-13T00:27:58.481Z,12.60
2023-03-13T00:30:25.277Z,12.60
2023-03-13T00:32:52.022Z,12.60
2023-03-13T00:35:19.041Z,12.60
2023-03-13T00:37:47.336Z,12.60
2023-03-13T00:40:14.229Z,12.60
2023-03-13T00:42:40.986Z,12.60
2023-03-13T00:45:08.195Z,12.60
2023-03-13T00:47:34.850Z,12.60
2023-03-13T00:50:02.004Z,12.60
2023-03-13T00:52:28.622Z,12.60
2023-03-13T00:54:55.519Z,12.60
2023-03-13T00:57:22.337Z,12.60
2023-03-13T00:59:49.045Z,12.60
2023-03-13T01:02:15.911Z,12.60
2023-03-13T01:04:42.930Z,12.60
2023-03-13T01:07:09.586Z,12.60
2023-03-13T01:09:36.290Z,12.60
2023-03-13T01:12:03.081Z,12.60
2023-03-13T01:14:31.073Z,12.60
2023-03-13T01:16:57.703Z,12.60
2023-03-13T01:19:24.682Z,12.50
2023-03-13T01:21:51.386Z,12.50
2023-03-13T01:24:20.051Z,12.50
2023-03-13T01:26:47.057Z,12.50
2023-03-13T01:29:15.560Z,12.50
2023-03-13T01:31:42.477Z,12.50
2023-03-13T01:34:11.149Z,12.50
2023-03-13T01:36:38.171Z,12.50
2023-03-13T01:39:05.145Z,12.40
2023-03-13T01:41:31.902Z,12.40
2023-03-13T01:43:59.363Z,12.40
2023-03-13T01:46:33.286Z,12.40
2023-03-13T01:49:16.517Z,12.40
2023-03-13T01:51:55.286Z,12.40
2023-03-13T01:54:30.974Z,12.40
2023-03-13T01:57:08.435Z,12.40
2023-03-13T01:59:42.268Z,12.40
2023-03-13T02:02:09.677Z,12.40
2023-03-13T02:04:39.933Z,12.30
2023-03-13T02:07:15.357Z,12.30
2023-03-13T02:09:46.140Z,12.30
2023-03-13T02:12:21.858Z,12.30
2023-03-13T02:14:51.413Z,12.30
2023-03-13T02:17:18.255Z,12.30
2023-03-13T02:19:51.790Z,12.30
2023-03-13T02:22:29.848Z,12.30
2023-03-13T02:25:24.643Z,12.30
2023-03-13T02:27:58.915Z,12.30
2023-03-13T02:30:26.925Z,12.30
2023-03-13T02:32:54.746Z,12.30
2023-03-13T02:35:23.379Z,12.20
2023-03-13T02:37:55.561Z,12.20
2023-03-13T02:40:32.451Z,12.20
2023-03-13T02:43:02.656Z,12.20
2023-03-13T02:45:29.503Z,12.20
2023-03-13T02:47:56.205Z,12.20
2023-03-13T02:50:23.612Z,12.20
2023-03-13T02:52:59.648Z,12.20
2023-03-13T02:55:32.534Z,12.20
2023-03-13T02:57:59.618Z,12.20
2023-03-13T03:00:28.949Z,12.20
2023-03-13T03:02:56.155Z,12.20
2023-03-13T03:05:23.536Z,12.20
2023-03-13T03:07:51.078Z,12.20
2023-03-13T03:10:19.130Z,12.20
2023-03-13T03:12:46.164Z,12.20
2023-03-13T03:15:13.509Z,12.20
2023-03-13T03:17:44.393Z,12.20
2023-03-13T03:20:12.126Z,12.20
2023-03-13T03:22:42.174Z,12.20
2023-03-13T03:25:09.791Z,12.20
2023-03-13T03:27:37.196Z,12.20
2023-03-13T03:30:07.494Z,12.20
2023-03-13T03:32:35.833Z,12.20
2023-03-13T03:35:02.734Z,12.20
2023-03-13T03:37:29.677Z,12.20
2023-03-13T03:39:57.127Z,12.20
2023-03-13T03:42:23.929Z,12.20
2023-03-13T03:44:50.669Z,12.20
2023-03-13T03:47:18.442Z,12.20
2023-03-13T03:49:47.490Z,12.30
2023-03-13T03:52:15.329Z,12.30
2023-03-13T03:54:43.705Z,12.30
2023-03-13T03:57:10.454Z,12.30
2023-03-13T03:59:38.297Z,12.30
2023-03-13T04:02:09.334Z,12.40
2023-03-13T04:04:36.406Z,12.40
2023-03-13T04:07:22.265Z,12.40
2023-03-13T04:09:50.009Z,12.40
2023-03-13T04:12:36.122Z,12.40
2023-03-13T04:15:03.234Z,12.40
2023-03-13T04:17:29.955Z,12.40
2023-03-13T04:19:57.129Z,12.50
2023-03-13T04:22:23.884Z,12.50
2023-03-13T04:24:55.755Z,12.50
2023-03-13T04:27:23.449Z,12.60
2023-03-13T04:29:51.424Z,12.60
2023-03-13T04:32:42.378Z,12.60
2023-03-13T04:35:21.123Z,12.60
2023-03-13T04:38:02.681Z,12.60
2023-03-13T04:40:35.194Z,12.60
2023-03-13T04:43:01.837Z,12.70
2023-03-13T04:45:46.486Z,12.70
2023-03-13T04:48:13.384Z,12.70
2023-03-13T04:51:03.489Z,12.70
2023-03-13T04:53:41.982Z,12.70
2023-03-13T04:56:42.072Z,12.80
2023-03-13T04:59:25.449Z,12.80
2023-03-13T05:02:22.228Z,12.80
2023-03-13T05:04:50.575Z,12.80
2023-03-13T05:07:37.611Z,12.90
2023-03-13T05:10:29.508Z,12.90
2023-03-13T05:13:22.444Z,12.90
2023-03-13T05:15:57.758Z,12.90
2023-03-13T05:18:42.965Z,13.00
2023-03-13T05:21:20.014Z,13.00
2023-03-13T05:24:05.696Z,13.00
2023-03-13T05:27:02.575Z,13.10
2023-03-13T05:29:43.635Z,13.10
2023-03-13T05:32:26.137Z,13.10
2023-03-13T05:35:00.216Z,13.20
2023-03-13T05:37:50.023Z,13.20
2023-03-13T05:40:27.894Z,13.30
2023-03-13T05:43:26.647Z,13.30
2023-03-13T05:46:13.215Z,13.30
2023-03-13T05:48:42.901Z,13.40
2023-03-13T05:51:29.533Z,13.40
2023-03-13T05:54:34.741Z,13.40
2023-03-13T05:57:01.346Z,13.50
2023-03-13T05:59:44.606Z,13.50
2023-03-13T06:02:34.390Z,13.60
2023-03-13T06:05:03.390Z,13.60
2023-03-13T06:07:30.120Z,13.60
2023-03-13T06:09:56.802Z,13.60
2023-03-13T06:12:24.263Z,13.70
2023-03-13T06:14:50.929Z,13.70
2023-03-13T06:17:25.424Z,13.70
2023-03-13T06:19:52.145Z,13.80
2023-03-13T06:22:18.962Z,13.80
2023-03-13T06:24:46.761Z,13.80
2023-03-13T06:27:13.484Z,13.80
2023-03-13T06:29:40.304Z,13.90
2023-03-13T06:32:07.358Z,13.90
2023-03-13T06:34:34.246Z,13.90
2023-03-13T06:37:01.123Z,14.00
2023-03-13T06:39:27.844Z,14.00
2023-03-13T06:41:54.554Z,14.00
2023-03-13T06:44:21.215Z,14.10
2023-03-13T06:46:48.973Z,14.10
2023-03-13T06:49:15.841Z,14.10
2023-03-13T06:51:42.537Z,14.10
2023-03-13T06:54:09.207Z,14.20
2023-03-13T06:56:35.895Z,14.20
2023-03-13T06:59:02.595Z,14.20
2023-03-13T07:01:29.303Z,14.20
2023-03-13T07:03:56.108Z,14.30
2023-03-13T07:06:23.498Z,14.30
2023-03-13T07:08:50.225Z,14.40
2023-03-13T07:11:16.999Z,14.40
2023-03-13T07:13:43.699Z,14.40
2023-03-13T07:16:12.623Z,14.40
2023-03-13T07:18:41.817Z,14.50
2023-03-13T07:21:10.331Z,14.50
2023-03-13T07:23:37.010Z,14.50
2023-03-13T07:26:07.035Z,14.50
2023-03-13T07:28:37.547Z,14.60
2023-03-13T07:31:10.758Z,14.60
2023-03-13T07:33:37.452Z,14.60
2023-03-13T07:36:04.802Z,14.60
2023-03-13T07:38:31.725Z,14.70
2023-03-13T07:40:58.535Z,14.70
2023-03-13T07:43:26.024Z,14.70
2023-03-13T07:46:12.640Z,14.70
2023-03-13T07:48:42.311Z,14.80
2023-03-13T07:51:16.810Z,14.80
2023-03-13T07:53:50.368Z,14.80
2023-03-13T07:56:19.691Z,14.80
2023-03-13T07:58:46.730Z,14.90
2023-03-13T08:01:27.336Z,14.90
2023-03-13T08:03:56.097Z,14.90
2023-03-13T08:06:25.252Z,15.00
2023-03-13T08:08:53.428Z,15.00
2023-03-13T08:11:22.323Z,15.00
2023-03-13T08:13:51.930Z,15.00
2023-03-13T08:16:27.621Z,15.10
2023-03-13T08:18:57.161Z,15.10
2023-03-13T08:21:26.753Z,15.20
2023-03-13T08:23:55.279Z,15.20
2023-03-13T08:26:24.565Z,15.20
2023-03-13T08:28:57.704Z,15.20
2023-03-13T08:31:26.969Z,15.20
2023-03-13T08:33:53.996Z,15.30
2023-03-13T08:36:29.612Z,15.30
2023-03-13T08:38:59.849Z,15.30
2023-03-13T08:41:29.017Z,15.30
2023-03-13T08:43:57.456Z,15.30
2023-03-13T08:46:25.333Z,15.40
2023-03-13T08:48:53.826Z,15.40
2023-03-13T08:51:23.253Z,15.40
2023-03-13T08:53:51.061Z,15.40
2023-03-13T08:56:20.273Z,15.40
2023-03-13T08:59:06.317Z,15.40
2023-03-13T09:01:35.584Z,15.50
2023-03-13T09:04:04.619Z,15.60
2023-03-13T09:06:33.353Z,15.50
2023-03-13T09:09:00.114Z,15.60
2023-03-13T09:11:27.259Z,15.60
2023-03-13T09:13:56.317Z,15.60
2023-03-13T09:16:25.398Z,15.60
2023-03-13T09:18:53.221Z,15.70
2023-03-13T09:21:22.770Z,15.70
2023-03-13T09:23:50.109Z,15.70
2023-03-13T09:26:17.870Z,15.80
2023-03-13T09:28:44.890Z,15.90
2023-03-13T09:31:20.895Z,16.00
2023-03-13T09:33:49.355Z,16.10
2023-03-13T09:36:19.936Z,16.30
2023-03-13T09:38:48.040Z,16.40
2023-03-13T09:41:17.661Z,16.60
2023-03-13T09:43:59.442Z,16.70
2023-03-13T09:46:36.578Z,16.80
2023-03-13T09:49:10.714Z,16.90
2023-03-13T09:51:42.692Z,17.10
2023-03-13T09:54:34.197Z,17.10
2023-03-13T09:57:25.118Z,17.20
2023-03-13T09:59:58.958Z,17.20
2023-03-13T10:02:30.754Z,17.20
2023-03-13T10:05:24.223Z,17.20
2023-03-13T10:07:52.451Z,17.20
2023-03-13T10:10:37.065Z,17.20
2023-03-13T10:13:15.374Z,17.20
2023-03-13T10:15:50.067Z,17.30
2023-03-13T10:18:26.293Z,17.30
2023-03-13T10:20:58.269Z,17.50
2023-03-13T10:23:50.620Z,17.60
2023-03-13T10:26:29.020Z,17.80
2023-03-13T10:28:57.435Z,18.00
2023-03-13T10:31:33.124Z,18.20
2023-03-13T10:34:27.879Z,18.40
2023-03-13T10:37:02.280Z,18.60
2023-03-13T10:39:29.759Z,18.80
2023-03-13T10:42:21.508Z,19.00
2023-03-13T10:44:48.211Z,19.20
2023-03-13T10:47:15.798Z,19.30
2023-03-13T10:49:57.196Z,19.40
2023-03-13T10:52:43.256Z,19.40
2023-03-13T10:55:13.486Z,19.40
2023-03-13T10:57:44.801Z,19.40
2023-03-13T11:00:28.384Z,19.50
2023-03-13T11:02:55.595Z,19.50
2023-03-13T11:05:43.136Z,19.50
2023-03-13T11:08:24.235Z,19.40
2023-03-13T11:10:52.797Z,19.40
2023-03-13T11:13:37.320Z,19.40
2023-03-13T11:16:20.893Z,19.40
2023-03-13T11:19:18.643Z,19.40
2023-03-13T11:22:03.059Z,19.40
2023-03-13T11:24:59.080Z,19.40
2023-03-13T11:27:35.964Z,19.30
2023-03-13T11:30:31.563Z,19.40
2023-03-13T11:33:26.251Z,19.40
2023-03-13T11:36:10.731Z,19.40
2023-03-13T11:38:42.305Z,19.40
2023-03-13T11:41:37.295Z,19.40
2023-03-13T11:44:41.495Z,19.40
2023-03-13T11:47:24.043Z,19.40
2023-03-13T11:50:03.211Z,19.40
2023-03-13T11:52:51.224Z,19.50
2023-03-13T11:55:25.310Z,19.50
2023-03-13T11:58:28.956Z,19.50
2023-03-13T12:01:04.467Z,19.60
2023-03-13T12:04:01.943Z,19.60
2023-03-13T12:06:55.419Z,19.60
2023-03-13T12:09:31.623Z,19.60
2023-03-13T12:12:15.457Z,19.60
2023-03-13T12:14:48.383Z,19.60
2023-03-13T12:17:35.062Z,19.60
2023-03-13T12:20:21.845Z,19.60
2023-03-13T12:22:52.663Z,19.60
2023-03-13T12:25:33.004Z,19.60
2023-03-13T12:28:18.605Z,19.60
2023-03-13T12:30:52.515Z,19.60
2023-03-13T12:34:20.755Z,19.60
2023-03-13T12:36:57.111Z,19.60
2023-03-13T12:39:47.730Z,19.70
2023-03-13T12:42:58.291Z,19.70
2023-03-13T12:45:26.230Z,19.70
2023-03-13T12:48:20.462Z,19.70
2023-03-13T12:51:25.854Z,19.70
2023-03-13T12:54:26.001Z,19.70
2023-03-13T12:57:15.815Z,19.70
2023-03-13T12:59:49.159Z,19.80
2023-03-13T13:02:20.413Z,19.70
2023-03-13T13:04:49.424Z,19.70
2023-03-13T13:07:33.492Z,19.70
2023-03-13T13:10:17.361Z,19.70
2023-03-13T13:12:46.270Z,19.70
2023-03-13T13:15:27.358Z,19.70
2023-03-13T13:18:18.056Z,19.80
2023-03-13T13:20:48.492Z,19.70
2023-03-13T13:23:23.003Z,19.70
2023-03-13T13:25:50.302Z,19.70
2023-03-13T13:28:19.149Z,19.70
2023-03-13T13:30:45.904Z,19.70
2023-03-13T13:33:18.929Z,19.70
2023-03-13T13:35:47.264Z,19.60
2023-03-13T13:38:20.118Z,19.60
2023-03-13T13:41:23.926Z,19.60
2023-03-13T13:44:24.240Z,19.60
2023-03-13T13:46:51.277Z,19.50
2023-03-13T13:49:22.980Z,19.50
2023-03-13T13:52:01.607Z,19.50
2023-03-13T13:54:48.523Z,19.50
2023-03-13T13:57:27.744Z,19.40
2023-03-13T14:00:16.908Z,19.40
2023-03-13T14:02:53.578Z,19.40
2023-03-13T14:05:27.114Z,19.40
2023-03-13T14:08:20.496Z,19.40
2023-03-13T14:11:31.829Z,19.30
2023-03-13T14:14:18.033Z,19.30
2023-03-13T14:16:50.492Z,19.30
2023-03-13T14:19:30.678Z,19.30
2023-03-13T14:22:02.893Z,19.20
2023-03-13T14:24:29.793Z,19.30
2023-03-13T14:26:56.857Z,19.20
2023-03-13T14:29:26.847Z,19.20
2023-03-13T14:31:55.927Z,19.20
2023-03-13T14:34:23.600Z,19.20
2023-03-13T14:37:04.430Z,19.20
2023-03-13T14:39:34.196Z,19.20
2023-03-13T14:42:12.726Z,19.20
2023-03-13T14:44:41.425Z,19.20
2023-03-13T14:47:44.877Z,19.20
2023-03-13T14:50:14.817Z,19.20
2023-03-13T14:52:54.597Z,19.20
2023-03-13T14:55:21.734Z,19.20
2023-03-13T14:57:57.782Z,19.20
2023-03-13T15:00:35.515Z,19.20
2023-03-13T15:03:25.451Z,19.20
2023-03-13T15:06:10.702Z,19.20
2023-03-13T15:08:43.321Z,19.10
2023-03-13T15:11:28.593Z,19.10
2023-03-13T15:13:56.872Z,19.10
2023-03-13T15:16:24.827Z,19.10
2023-03-13T15:18:52.715Z,19.10
2023-03-13T15:21:26.600Z,19.10
2023-03-13T15:26:41.767Z,19.10
2023-03-13T15:29:12.442Z,19.10
2023-03-13T15:31:39.942Z,19.10
2023-03-13T15:34:12.426Z,19.10
2023-03-13T15:36:40.726Z,19.10
2023-03-13T15:39:20.357Z,19.10
2023-03-13T15:41:46.981Z,19.10
2023-03-13T15:44:13.816Z,19.10
2023-03-13T15:46:40.442Z,19.10
2023-03-13T15:49:11.227Z,19.10
2023-03-13T15:51:38.272Z,19.00
2023-03-13T15:54:05.110Z,19.00
2023-03-13T15:56:36.900Z,19.00
2023-03-13T15:59:13.358Z,19.00
2023-03-13T16:01:40.563Z,19.00
2023-03-13T16:04:07.759Z,19.00
2023-03-13T16:06:34.490Z,19.10
2023-03-13T16:09:05.215Z,19.00
2023-03-13T16:11:32.423Z,19.10
2023-03-13T16:13:59.158Z,19.00
2023-03-13T16:16:30.997Z,19.00
2023-03-13T16:19:00.148Z,18.90
2023-03-13T16:21:29.223Z,18.90
2023-03-13T16:23:56.082Z,18.90
2023-03-13T16:26:26.071Z,18.90
2023-03-13T16:28:53.995Z,18.80
2023-03-13T16:31:27.590Z,18.80
2023-03-13T16:33:55.835Z,18.80
2023-03-13T16:36:30.019Z,18.70
2023-03-13T16:38:57.782Z,18.70
2023-03-13T16:41:27.709Z,18.70
2023-03-13T16:43:55.632Z,18.70
2023-03-13T16:46:27.107Z,18.60
2023-03-13T16:48:54.611Z,18.60
2023-03-13T16:51:23.822Z,18.60
2023-03-13T16:53:53.287Z,18.50
2023-03-13T16:56:26.133Z,18.50
2023-03-13T16:58:53.883Z,18.50
2023-03-13T17:01:21.442Z,18.40
2023-03-13T17:03:48.122Z,18.40
2023-03-13T17:06:39.569Z,18.40
2023-03-13T17:09:11.836Z,18.30
2023-03-13T17:11:38.473Z,18.30
2023-03-13T17:14:05.211Z,18.30
2023-03-13T17:16:34.148Z,18.20
2023-03-13T17:19:01.785Z,18.20
2023-03-13T17:21:31.856Z,18.20
2023-03-13T17:24:01.851Z,18.10
2023-03-13T17:26:32.919Z,18.10
2023-03-13T17:29:00.428Z,18.10
2023-03-13T17:31:28.344Z,18.00
2023-03-13T17:33:54.985Z,17.90
2023-03-13T17:36:27.706Z,17.90
2023-03-13T17:39:00.327Z,17.90
2023-03-13T17:41:29.323Z,17.90
2023-03-13T17:43:56.416Z,17.80
2023-03-13T17:46:33.992Z,17.80
2023-03-13T17:49:01.517Z,17.80
2023-03-13T17:51:31.527Z,17.70
2023-03-13T17:53:58.796Z,17.70
2023-03-13T17:56:27.591Z,17.60
2023-03-13T17:58:57.698Z,17.60
2023-03-13T18:01:27.001Z,17.60
2023-03-13T18:03:54.375Z,17.60
2023-03-13T18:06:25.720Z,17.50
2023-03-13T18:08:55.668Z,17.50
2023-03-13T18:11:23.613Z,17.50
2023-03-13T18:13:50.957Z,17.40
2023-03-13T18:16:40.538Z,17.40
2023-03-13T18:19:15.167Z,17.40
2023-03-13T18:21:43.498Z,17.30
2023-03-13T18:24:11.265Z,17.30
2023-03-13T18:26:39.856Z,17.30
2023-03-13T18:29:15.454Z,17.30
2023-03-13T18:31:43.685Z,17.20
2023-03-13T18:34:11.414Z,17.20
2023-03-13T18:36:38.615Z,17.20
2023-03-13T18:39:08.647Z,17.20
2023-03-13T18:41:35.376Z,17.10
2023-03-13T18:44:02.177Z,17.10
2023-03-13T18:46:31.677Z,17.10
2023-03-13T18:49:00.228Z,17.10
2023-03-13T18:51:27.923Z,17.00
2023-03-13T18:53:56.303Z,17.00
2023-03-13T18:56:31.979Z,17.00
2023-03-13T18:59:00.255Z,16.90
2023-03-13T19:01:30.116Z,16.90
2023-03-13T19:03:59.477Z,16.90
2023-03-13T19:06:32.567Z,16.90
2023-03-13T19:09:01.970Z,16.80
2023-03-13T19:11:30.839Z,16.80
2023-03-13T19:13:58.033Z,16.80
2023-03-13T19:16:48.017Z,16.70
2023-03-13T19:19:23.554Z,16.70
2023-03-13T19:21:52.113Z,16.70
2023-03-13T19:24:19.114Z,16.70
2023-03-13T19:26:49.474Z,16.60
2023-03-13T19:29:18.720Z,16.60
2023-03-13T19:31:45.830Z,16.60
2023-03-13T19:34:13.090Z,16.60
2023-03-13T19:36:47.573Z,16.60
2023-03-13T19:39:15.317Z,16.50
2023-03-13T19:41:42.620Z,16.50
2023-03-13T19:44:09.307Z,16.50
2023-03-13T19:46:39.256Z,16.50
2023-03-13T19:49:05.873Z,16.50
2023-03-13T19:51:32.522Z,16.50
2023-03-13T19:53:59.363Z,16.50
2023-03-13T19:56:28.823Z,16.40
2023-03-13T19:59:00.892Z,16.40
2023-03-13T20:01:27.689Z,16.40
2023-03-13T20:03:54.442Z,16.40
2023-03-13T20:06:24.201Z,16.40
2023-03-13T20:08:55.198Z,16.40
2023-03-13T20:11:22.067Z,16.40
2023-03-13T20:13:48.904Z,16.40
2023-03-13T20:16:15.916Z,16.30
2023-03-13T20:18:43.415Z,16.30
2023-03-13T20:21:10.716Z,16.30
2023-03-13T20:23:37.375Z,16.30
2023-03-13T20:26:08.385Z,16.30
2023-03-13T20:28:39.042Z,16.30
2023-03-13T20:31:06.223Z,16.20
2023-03-13T20:33:33.839Z,16.20
2023-03-13T20:36:06.046Z,16.20
2023-03-13T20:38:32.889Z,16.20
2023-03-13T20:40:59.569Z,16.20
2023-03-13T20:43:26.401Z,16.10
2023-03-13T20:45:53.142Z,16.10
2023-03-13T20:48:20.609Z,16.10
2023-03-13T20:50:52.053Z,16.10
2023-03-13T20:53:19.674Z,16.10
2023-03-13T20:55:47.162Z,16.00
2023-03-13T20:58:14.430Z,16.00
2023-03-13T21:00:41.876Z,16.00
2023-03-13T21:03:08.784Z,15.90
2023-03-13T21:05:39.685Z,15.90
2023-03-13T21:08:06.589Z,15.90
2023-03-13T21:10:39.077Z,15.90
2023-03-13T21:13:05.992Z,15.80
2023-03-13T21:15:33.456Z,15.80
2023-03-13T21:18:01.692Z,15.80
2023-03-13T21:20:29.145Z,15.70
2023-03-13T21:22:55.833Z,15.70
2023-03-13T21:25:22.838Z,15.70
2023-03-13T21:27:49.516Z,15.70
2023-03-13T21:30:19.057Z,15.70
2023-03-13T21:32:47.244Z,15.60
2023-03-13T21:35:14.894Z,15.60
2023-03-13T21:37:41.681Z,15.60
2023-03-13T21:40:09.726Z,15.60
2023-03-13T21:42:37.364Z,15.50
2023-03-13T21:45:05.108Z,15.50
2023-03-13T21:47:36.525Z,15.50
2023-03-13T21:50:06.575Z,15.50
2023-03-13T21:52:38.290Z,15.40
2023-03-13T21:55:10.053Z,15.50
2023-03-13T21:57:36.750Z,15.40
2023-03-13T22:00:07.803Z,15.40
2023-03-13T22:02:35.876Z,15.40
2023-03-13T22:05:03.935Z,15.30
2023-03-13T22:07:30.928Z,15.30
2023-03-13T22:09:58.168Z,15.30
2023-03-13T22:12:25.581Z,15.30
2023-03-13T22:14:53.052Z,15.30
2023-03-13T22:17:20.663Z,15.30
2023-03-13T22:19:47.655Z,15.30
2023-03-13T22:22:15.000Z,15.30
2023-03-13T22:24:41.771Z,15.30
2023-03-13T22:27:12.698Z,15.30
2023-03-13T22:29:39.483Z,15.30
2023-03-13T22:32:06.466Z,15.30
2023-03-13T22:34:33.355Z,15.50
2023-03-13T22:37:00.076Z,15.30
2023-03-13T22:39:26.739Z,15.30
2023-03-13T22:41:53.578Z,15.30
2023-03-13T22:44:20.622Z,15.30
2023-03-13T22:46:48.081Z,15.30
2023-03-13T22:49:14.750Z,15.30
2023-03-13T22:51:41.363Z,15.30
2023-03-13T22:54:08.026Z,15.30
2023-03-13T22:56:34.753Z,15.30
2023-03-13T22:59:02.979Z,15.30
2023-03-13T23:01:29.867Z,15.30
2023-03-13T23:03:56.616Z,15.30
2023-03-13T23:06:25.072Z,15.30
2023-03-13T23:08:52.080Z,15.30
2023-03-13T23:11:19.715Z,15.30
2023-03-13T23:13:46.488Z,15.30
2023-03-13T23:16:13.478Z,15.30
2023-03-13T23:18:41.933Z,15.30
2023-03-13T23:21:12.438Z,15.30
2023-03-13T23:23:39.854Z,15.30
2023-03-13T23:26:09.088Z,15.40
2023-03-13T23:28:37.309Z,15.40
2023-03-13T23:31:11.198Z,15.40
2023-03-13T23:33:38.188Z,15.40
2023-03-13T23:36:09.673Z,15.40
2023-03-13T23:38:36.372Z,15.40
2023-03-13T23:41:11.072Z,15.40
2023-03-13T23:43:38.297Z,15.40
2023-03-13T23:46:05.887Z,15.40
2023-03-13T23:48:32.694Z,15.40
2023-03-13T23:50:59.322Z,15.30
2023-03-13T23:53:26.009Z,15.30
2023-03-13T23:55:58.970Z,15.30
2023-03-13T23:58:25.882Z,15.30
